createdAt,value
2023-01-13T00:01:07.726Z,98372.38
2023-01-13T00:03:35.646Z,98371.91
2023-01-13T00:06:03.629Z,98364.56
2023-01-13T00:08:31.739Z,98370.94
2023-01-13T00:11:01.209Z,98374.66
2023-01-13T00:13:29.068Z,98367.22
2023-01-13T00:15:57.897Z,98352.53
2023-01-13T00:18:25.913Z,98347.59
2023-01-13T00:21:02.221Z,98347.59
2023-01-13T00:23:31.579Z,98355.09
2023-01-13T00:26:05.602Z,98351.00
2023-01-13T00:28:34.168Z,98341.13
2023-01-13T00:31:06.353Z,98340.19
2023-01-13T00:33:34.284Z,98347.41
2023-01-13T00:36:03.536Z,98336.81
2023-01-13T00:38:32.975Z,98331.63
2023-01-13T00:41:04.438Z,98343.03
2023-01-13T00:43:35.296Z,98328.50
2023-01-13T00:46:04.064Z,98339.88
2023-01-13T00:48:32.491Z,98328.84
2023-01-13T00:51:02.754Z,98331.25
2023-01-13T00:53:36.127Z,98332.47
2023-01-13T00:56:07.643Z,98329.81
2023-01-13T00:58:36.744Z,98329.06
2023-01-13T01:01:10.371Z,98321.34
2023-01-13T01:03:38.516Z,98322.69
2023-01-13T01:06:08.400Z,98324.19
2023-01-13T01:08:36.903Z,98315.38
2023-01-13T01:11:08.445Z,98305.69
2023-01-13T01:13:37.323Z,98312.91
2023-01-13T01:16:07.481Z,98318.56
2023-01-13T01:18:35.993Z,98308.66
2023-01-13T01:21:04.561Z,98295.81
2023-01-13T01:23:33.225Z,98299.44
2023-01-13T01:26:02.229Z,98308.31
2023-01-13T01:28:31.586Z,98301.38
2023-01-13T01:30:59.804Z,98306.56
2023-01-13T01:33:27.962Z,98296.00
2023-01-13T01:35:56.138Z,98310.94
2023-01-13T01:38:23.966Z,98303.28
2023-01-13T01:40:51.767Z,98302.81
2023-01-13T01:43:38.666Z,98308.41
2023-01-13T01:46:08.677Z,98310.25
2023-01-13T01:48:40.524Z,98307.91
2023-01-13T01:51:13.004Z,98306.72
2023-01-13T01:53:41.724Z,98283.81
2023-01-13T01:56:11.153Z,98294.94
2023-01-13T01:58:45.397Z,98291.53
2023-01-13T02:01:15.497Z,98295.34
2023-01-13T02:03:47.739Z,98286.00
2023-01-13T02:06:17.193Z,98292.69
2023-01-13T02:08:45.229Z,98288.34
2023-01-13T02:11:42.286Z,98282.56
2023-01-13T02:14:11.706Z,98280.53
2023-01-13T02:16:48.113Z,98288.66
2023-01-13T02:19:31.996Z,98286.00
2023-01-13T02:22:20.168Z,98280.97
2023-01-13T02:25:11.549Z,98278.38
2023-01-13T02:27:57.128Z,98273.47
2023-01-13T02:30:55.199Z,98268.28
2023-01-13T02:33:35.354Z,98264.84
2023-01-13T02:36:09.782Z,98266.94
2023-01-13T02:38:42.583Z,98252.63
2023-01-13T02:41:37.651Z,98256.44
2023-01-13T02:44:10.551Z,98250.72
2023-01-13T02:46:49.110Z,98254.31
2023-01-13T02:49:24.621Z,98246.84
2023-01-13T02:52:01.181Z,98245.84
2023-01-13T02:54:31.423Z,98237.25
2023-01-13T02:57:01.698Z,98240.59
2023-01-13T02:59:31.370Z,98229.88
2023-01-13T03:02:04.096Z,98232.00
2023-01-13T03:04:57.365Z,98229.47
2023-01-13T03:08:05.783Z,98236.25
2023-01-13T03:10:44.720Z,98240.56
2023-01-13T03:13:44.529Z,98240.50
2023-01-13T03:16:23.375Z,98237.41
2023-01-13T03:19:02.375Z,98232.75
2023-01-13T03:21:35.911Z,98241.53
2023-01-13T03:24:10.237Z,98237.31
2023-01-13T03:26:43.609Z,98238.31
2023-01-13T03:29:16.165Z,98229.31
2023-01-13T03:31:51.786Z,98228.91
2023-01-13T03:34:26.397Z,98225.94
2023-01-13T03:36:56.727Z,98218.25
2023-01-13T03:39:30.377Z,98215.16
2023-01-13T03:42:03.124Z,98214.94
2023-01-13T03:44:34.237Z,98211.06
2023-01-13T03:47:12.230Z,98207.25
2023-01-13T03:49:47.055Z,98195.44
2023-01-13T03:52:19.857Z,98202.72
2023-01-13T03:54:52.617Z,98199.59
2023-01-13T03:57:24.539Z,98204.56
2023-01-13T03:59:57.135Z,98202.97
2023-01-13T04:02:37.823Z,98206.75
2023-01-13T04:05:10.100Z,98184.97
2023-01-13T04:07:50.774Z,98183.56
2023-01-13T04:10:24.563Z,98180.69
2023-01-13T04:13:05.251Z,98169.84
2023-01-13T04:15:37.468Z,98164.97
2023-01-13T04:18:18.269Z,98173.94
2023-01-13T04:20:49.384Z,98170.31
2023-01-13T04:23:21.694Z,98178.84
2023-01-13T04:25:50.543Z,98164.91
2023-01-13T04:28:19.456Z,98180.00
2023-01-13T04:30:48.371Z,98176.19
2023-01-13T04:33:17.797Z,98175.44
2023-01-13T04:35:48.325Z,98169.47
2023-01-13T04:38:18.200Z,98173.75
2023-01-13T04:40:46.326Z,98170.44
2023-01-13T04:43:15.580Z,98160.06
2023-01-13T04:45:46.181Z,98167.31
2023-01-13T04:48:14.148Z,98164.66
2023-01-13T04:50:42.668Z,98155.47
2023-01-13T04:53:12.331Z,98165.50
2023-01-13T04:55:40.220Z,98163.66
2023-01-13T04:58:09.809Z,98159.22
2023-01-13T05:00:38.401Z,98159.81
2023-01-13T05:03:06.338Z,98158.56
2023-01-13T05:05:34.205Z,98159.81
2023-01-13T05:08:02.131Z,98161.03
2023-01-13T05:10:31.424Z,98165.75
2023-01-13T05:13:16.899Z,98173.28
2023-01-13T05:16:04.128Z,98179.69
2023-01-13T05:18:33.013Z,98173.69
2023-01-13T05:21:00.842Z,98179.69
2023-01-13T05:23:46.859Z,98174.31
2023-01-13T05:26:16.112Z,98180.41
2023-01-13T05:28:43.900Z,98179.41
2023-01-13T05:31:13.176Z,98174.78
2023-01-13T05:33:40.974Z,98173.16
2023-01-13T05:36:09.747Z,98182.19
2023-01-13T05:38:37.642Z,98178.84
2023-01-13T05:41:22.849Z,98169.75
2023-01-13T05:43:52.086Z,98161.63
2023-01-13T05:46:19.982Z,98165.56
2023-01-13T05:48:50.723Z,98156.88
2023-01-13T05:51:19.161Z,98161.63
2023-01-13T05:53:47.404Z,98152.19
2023-01-13T05:56:17.388Z,98149.34
2023-01-13T05:58:45.703Z,98153.53
2023-01-13T06:01:14.972Z,98149.63
2023-01-13T06:03:42.814Z,98157.53
2023-01-13T06:06:10.656Z,98160.97
2023-01-13T06:08:39.851Z,98159.03
2023-01-13T06:11:08.034Z,98163.50
2023-01-13T06:13:35.882Z,98164.47
2023-01-13T06:16:03.969Z,98173.75
2023-01-13T06:18:33.285Z,98174.34
2023-01-13T06:21:01.095Z,98182.13
2023-01-13T06:23:31.974Z,98179.09
2023-01-13T06:26:05.211Z,98181.72
2023-01-13T06:28:33.260Z,98172.47
2023-01-13T06:31:03.101Z,98184.88
2023-01-13T06:33:36.293Z,98189.97
2023-01-13T06:36:08.428Z,98179.75
2023-01-13T06:38:39.212Z,98179.88
2023-01-13T06:41:09.190Z,98178.13
2023-01-13T06:43:36.440Z,98167.47
2023-01-13T06:46:05.927Z,98166.91
2023-01-13T06:48:35.969Z,98164.28
2023-01-13T06:51:04.509Z,98166.91
2023-01-13T06:53:32.961Z,98166.25
2023-01-13T06:56:00.827Z,98165.19
2023-01-13T06:58:28.599Z,98164.34
2023-01-13T07:01:01.172Z,98163.09
2023-01-13T07:03:31.214Z,98147.03
2023-01-13T07:06:01.878Z,98152.59
2023-01-13T07:08:29.824Z,98152.00
2023-01-13T07:10:57.653Z,98155.38
2023-01-13T07:13:42.977Z,98162.72
2023-01-13T07:16:10.969Z,98160.44
2023-01-13T07:18:38.990Z,98153.50
2023-01-13T07:21:09.879Z,98151.81
2023-01-13T07:23:39.570Z,98146.28
2023-01-13T07:26:08.154Z,98146.53
2023-01-13T07:28:37.029Z,98153.50
2023-01-13T07:31:04.887Z,98168.25
2023-01-13T07:33:33.328Z,98174.84
2023-01-13T07:36:03.392Z,98176.31
2023-01-13T07:38:34.275Z,98167.75
2023-01-13T07:41:23.891Z,98168.19
2023-01-13T07:43:51.829Z,98159.91
2023-01-13T07:46:20.526Z,98155.38
2023-01-13T07:48:49.019Z,98158.78
2023-01-13T07:51:17.183Z,98167.47
2023-01-13T07:53:46.584Z,98165.22
2023-01-13T07:56:14.950Z,98170.25
2023-01-13T07:58:42.925Z,98166.66
2023-01-13T08:01:12.512Z,98167.44
2023-01-13T08:03:41.121Z,98168.06
2023-01-13T08:06:10.056Z,98167.31
2023-01-13T08:08:38.545Z,98167.81
2023-01-13T08:11:10.817Z,98187.28
2023-01-13T08:13:38.781Z,98181.41
2023-01-13T08:16:08.886Z,98199.09
2023-01-13T08:18:37.529Z,98197.06
2023-01-13T08:21:07.980Z,98196.63
2023-01-13T08:23:36.050Z,98209.59
2023-01-13T08:26:05.920Z,98209.72
2023-01-13T08:28:35.460Z,98214.38
2023-01-13T08:31:05.248Z,98217.53
2023-01-13T08:33:33.683Z,98215.84
2023-01-13T08:36:04.836Z,98226.00
2023-01-13T08:38:35.718Z,98226.47
2023-01-13T08:41:10.712Z,98226.41
2023-01-13T08:43:40.027Z,98237.88
2023-01-13T08:46:08.086Z,98240.25
2023-01-13T08:48:36.052Z,98256.91
2023-01-13T08:51:06.001Z,98265.22
2023-01-13T08:53:33.915Z,98268.09
2023-01-13T08:56:01.841Z,98271.38
2023-01-13T08:58:29.778Z,98283.41
2023-01-13T09:01:05.257Z,98292.94
2023-01-13T09:03:33.263Z,98311.47
2023-01-13T09:06:01.192Z,98331.81
2023-01-13T09:08:29.224Z,98349.31
2023-01-13T09:10:58.449Z,98355.34
2023-01-13T09:13:25.990Z,98350.06
2023-01-13T09:15:56.456Z,98352.81
2023-01-13T09:18:25.727Z,98361.66
2023-01-13T09:20:53.719Z,98355.16
2023-01-13T09:23:21.580Z,98345.56
2023-01-13T09:25:50.204Z,98353.84
2023-01-13T09:28:43.132Z,98353.38
2023-01-13T09:31:13.376Z,98346.25
2023-01-13T09:33:59.845Z,98351.22
2023-01-13T09:36:27.724Z,98349.75
2023-01-13T09:38:55.598Z,98347.75
2023-01-13T09:41:43.888Z,98349.31
2023-01-13T09:44:17.828Z,98356.66
2023-01-13T09:46:52.512Z,98362.19
2023-01-13T09:49:28.590Z,98362.75
2023-01-13T09:52:03.711Z,98358.44
2023-01-13T09:54:34.865Z,98370.34
2023-01-13T09:57:02.927Z,98369.13
2023-01-13T09:59:36.332Z,98370.34
2023-01-13T10:02:17.886Z,98375.75
2023-01-13T10:05:04.326Z,98388.00
2023-01-13T10:07:35.981Z,98393.75
2023-01-13T10:10:09.245Z,98391.13
2023-01-13T10:12:55.006Z,98388.38
2023-01-13T10:15:27.943Z,98389.69
2023-01-13T10:17:59.411Z,98382.84
2023-01-13T10:20:37.063Z,98385.13
2023-01-13T10:23:16.887Z,98383.66
2023-01-13T10:25:56.404Z,98382.84
2023-01-13T10:28:25.423Z,98385.47
2023-01-13T10:30:53.553Z,98388.22
2023-01-13T10:33:28.329Z,98381.03
2023-01-13T10:36:00.491Z,98394.47
2023-01-13T10:38:31.545Z,98386.81
2023-01-13T10:41:04.197Z,98394.13
2023-01-13T10:43:33.336Z,98398.22
2023-01-13T10:46:05.082Z,98405.31
2023-01-13T10:48:41.673Z,98412.25
2023-01-13T10:51:22.373Z,98409.22
2023-01-13T10:53:57.124Z,98418.41
2023-01-13T10:56:27.225Z,98425.59
2023-01-13T10:59:18.574Z,98411.94
2023-01-13T11:01:59.574Z,98409.84
2023-01-13T11:04:31.267Z,98409.75
2023-01-13T11:07:01.548Z,98400.94
2023-01-13T11:09:31.836Z,98398.13
2023-01-13T11:12:00.580Z,98409.66
2023-01-13T11:14:39.771Z,98405.19
2023-01-13T11:17:30.575Z,98416.63
2023-01-13T11:20:06.095Z,98409.66
2023-01-13T11:22:40.840Z,98421.78
2023-01-13T11:25:15.461Z,98419.59
2023-01-13T11:27:53.649Z,98425.59
2023-01-13T11:30:34.007Z,98425.03
2023-01-13T11:33:12.047Z,98435.19
2023-01-13T11:35:45.198Z,98432.28
2023-01-13T11:38:27.404Z,98440.34
2023-01-13T11:40:58.913Z,98437.34
2023-01-13T11:43:33.105Z,98431.28
2023-01-13T11:46:02.723Z,98428.75
2023-01-13T11:48:33.816Z,98431.75
2023-01-13T11:51:08.347Z,98431.94
2023-01-13T11:53:58.147Z,98421.44
2023-01-13T11:56:44.726Z,98424.19
2023-01-13T11:59:35.504Z,98419.97
2023-01-13T12:02:19.941Z,98412.75
2023-01-13T12:04:58.341Z,98399.78
2023-01-13T12:07:43.697Z,98391.59
2023-01-13T12:10:18.122Z,98392.91
2023-01-13T12:12:52.773Z,98416.28
2023-01-13T12:15:33.296Z,98402.69
2023-01-13T12:18:14.944Z,98406.38
2023-01-13T12:20:53.766Z,98413.25
2023-01-13T12:23:28.981Z,98420.56
2023-01-13T12:26:02.748Z,98418.63
2023-01-13T12:28:44.076Z,98421.13
2023-01-13T12:31:15.442Z,98432.47
2023-01-13T12:33:58.904Z,98428.00
2023-01-13T12:36:35.612Z,98446.88
2023-01-13T12:39:15.648Z,98438.34
2023-01-13T12:42:08.272Z,98436.31
2023-01-13T12:44:36.259Z,98451.88
2023-01-13T12:47:04.596Z,98463.91
2023-01-13T12:49:34.589Z,98460.09
2023-01-13T12:52:15.657Z,98462.19
2023-01-13T12:55:18.345Z,98464.84
2023-01-13T12:58:18.101Z,98468.69
2023-01-13T13:01:01.813Z,98476.91
2023-01-13T13:03:33.543Z,98460.69
2023-01-13T13:06:17.366Z,98450.16
2023-01-13T13:09:05.063Z,98466.91
2023-01-13T13:12:04.540Z,98441.31
2023-01-13T13:15:07.260Z,98451.94
2023-01-13T13:17:43.736Z,98448.09
2023-01-13T13:20:53.813Z,98444.41
2023-01-13T13:23:43.645Z,98445.19
2023-01-13T13:26:21.222Z,98452.91
2023-01-13T13:29:02.432Z,98451.03
2023-01-13T13:31:48.535Z,98454.38
2023-01-13T13:34:28.192Z,98469.53
2023-01-13T13:37:12.071Z,98468.00
2023-01-13T13:40:00.151Z,98470.59
2023-01-13T13:42:56.898Z,98469.50
2023-01-13T13:45:44.574Z,98485.44
2023-01-13T13:48:25.612Z,98478.66
2023-01-13T13:50:58.068Z,98492.72
2023-01-13T13:53:29.562Z,98492.88
2023-01-13T13:55:59.790Z,98494.63
2023-01-13T13:58:29.665Z,98502.88
2023-01-13T14:00:58.055Z,98515.03
2023-01-13T14:03:31.390Z,98533.41
2023-01-13T14:06:01.102Z,98546.38
2023-01-13T14:08:31.095Z,98543.94
2023-01-13T14:10:58.985Z,98558.94
2023-01-13T14:13:28.493Z,98556.66
2023-01-13T14:15:59.592Z,98572.94
2023-01-13T14:18:32.061Z,98581.09
2023-01-13T14:21:03.746Z,98585.16
2023-01-13T14:23:34.311Z,98591.34
2023-01-13T14:26:09.234Z,98593.66
2023-01-13T14:28:39.154Z,98568.97
2023-01-13T14:31:09.571Z,98563.16
2023-01-13T14:33:45.520Z,98557.66
2023-01-13T14:36:17.097Z,98558.78
2023-01-13T14:38:47.387Z,98565.16
2023-01-13T14:41:25.076Z,98558.81
2023-01-13T14:43:55.856Z,98564.94
2023-01-13T14:46:27.370Z,98563.59
2023-01-13T14:49:02.239Z,98571.88
2023-01-13T14:51:31.638Z,98573.09
2023-01-13T14:53:59.881Z,98580.00
2023-01-13T14:56:53.641Z,98588.41
2023-01-13T14:59:43.372Z,98583.44
2023-01-13T15:02:40.346Z,98594.69
2023-01-13T15:05:32.875Z,98590.47
2023-01-13T15:08:03.084Z,98581.31
2023-01-13T15:10:38.103Z,98595.50
2023-01-13T15:13:07.599Z,98587.75
2023-01-13T15:15:37.570Z,98602.47
2023-01-13T15:18:13.629Z,98600.97
2023-01-13T15:20:43.324Z,98613.97
2023-01-13T15:23:12.078Z,98616.47
2023-01-13T15:25:43.332Z,98626.84
2023-01-13T15:28:18.730Z,98623.28
2023-01-13T15:30:47.077Z,98620.59
2023-01-13T15:33:16.662Z,98621.38
2023-01-13T15:35:48.729Z,98624.47
2023-01-13T15:38:19.933Z,98633.16
2023-01-13T15:40:48.855Z,98631.88
2023-01-13T15:43:36.791Z,98633.63
2023-01-13T15:46:33.523Z,98629.34
2023-01-13T15:49:08.869Z,98637.56
2023-01-13T15:51:38.915Z,98634.81
2023-01-13T15:54:07.213Z,98643.16
2023-01-13T15:56:37.294Z,98648.31
2023-01-13T15:59:05.749Z,98656.53
2023-01-13T16:01:33.644Z,98656.72
2023-01-13T16:04:01.593Z,98669.16
2023-01-13T16:06:33.249Z,98683.00
2023-01-13T16:09:03.663Z,98685.84
2023-01-13T16:11:34.185Z,98688.16
2023-01-13T16:14:02.133Z,98674.59
2023-01-13T16:16:30.190Z,98682.22
2023-01-13T16:19:01.434Z,98686.50
2023-01-13T16:21:29.254Z,98688.16
2023-01-13T16:23:57.060Z,98701.84
2023-01-13T16:26:29.061Z,98696.19
2023-01-13T16:29:00.083Z,98701.69
2023-01-13T16:31:32.015Z,98705.56
2023-01-13T16:34:01.352Z,98710.63
2023-01-13T16:36:30.943Z,98715.38
2023-01-13T16:38:58.768Z,98712.72
2023-01-13T16:41:27.961Z,98708.31
2023-01-13T16:43:58.573Z,98712.06
2023-01-13T16:46:28.372Z,98714.69
2023-01-13T16:48:58.425Z,98720.13
2023-01-13T16:51:26.314Z,98724.00
2023-01-13T16:53:56.696Z,98728.69
2023-01-13T16:56:26.923Z,98725.72
2023-01-13T16:58:57.650Z,98734.47
2023-01-13T17:01:27.620Z,98730.78
2023-01-13T17:03:58.661Z,98741.31
2023-01-13T17:06:30.213Z,98746.38
2023-01-13T17:09:01.918Z,98765.72
2023-01-13T17:11:29.959Z,98763.19
2023-01-13T17:13:59.192Z,98764.47
2023-01-13T17:16:28.282Z,98762.59
2023-01-13T17:18:56.285Z,98770.06
2023-01-13T17:21:24.111Z,98778.50
2023-01-13T17:23:52.583Z,98783.41
2023-01-13T17:26:32.292Z,98788.53
2023-01-13T17:29:02.686Z,98797.84
2023-01-13T17:31:30.725Z,98799.75
2023-01-13T17:33:58.758Z,98799.91
2023-01-13T17:36:26.552Z,98808.75
2023-01-13T17:38:55.902Z,98803.88
2023-01-13T17:41:24.136Z,98807.28
2023-01-13T17:43:53.012Z,98796.19
2023-01-13T17:46:23.327Z,98807.69
2023-01-13T17:48:54.103Z,98806.75
2023-01-13T17:51:25.222Z,98814.84
2023-01-13T17:53:54.415Z,98812.44
2023-01-13T17:56:22.428Z,98820.09
2023-01-13T17:58:50.276Z,98823.72
2023-01-13T18:01:23.493Z,98829.47
2023-01-13T18:03:51.780Z,98834.34
2023-01-13T18:06:21.750Z,98836.53
2023-01-13T18:08:50.584Z,98833.44
2023-01-13T18:11:20.682Z,98830.88
2023-01-13T18:13:50.240Z,98830.63
2023-01-13T18:16:20.250Z,98837.94
2023-01-13T18:18:51.965Z,98833.16
2023-01-13T18:21:40.691Z,98841.06
2023-01-13T18:24:29.803Z,98853.75
2023-01-13T18:27:17.939Z,98859.19
2023-01-13T18:29:46.133Z,98855.91
2023-01-13T18:32:14.556Z,98862.00
2023-01-13T18:34:43.736Z,98862.84
2023-01-13T18:37:12.979Z,98872.53
2023-01-13T18:39:40.928Z,98871.97
2023-01-13T18:42:28.368Z,98880.19
2023-01-13T18:44:57.019Z,98893.81
2023-01-13T18:47:25.033Z,98885.16
2023-01-13T18:49:56.632Z,98877.84
2023-01-13T18:52:24.837Z,98890.78
2023-01-13T18:54:53.117Z,98892.69
2023-01-13T18:57:22.312Z,98899.16
2023-01-13T18:59:50.253Z,98908.00
2023-01-13T19:02:19.682Z,98900.31
2023-01-13T19:04:48.245Z,98907.56
2023-01-13T19:07:23.332Z,98912.91
2023-01-13T19:09:51.535Z,98906.59
2023-01-13T19:12:25.967Z,98906.22
2023-01-13T19:14:54.449Z,98900.69
2023-01-13T19:17:23.801Z,98912.88
2023-01-13T19:19:53.715Z,98915.41
2023-01-13T19:22:27.190Z,98917.03
2023-01-13T19:24:55.713Z,98937.09
2023-01-13T19:27:24.685Z,98942.53
2023-01-13T19:29:53.708Z,98942.81
2023-01-13T19:32:22.636Z,98944.97
2023-01-13T19:34:51.495Z,98946.13
2023-01-13T19:37:20.290Z,98957.19
2023-01-13T19:39:49.617Z,98958.38
2023-01-13T19:42:34.867Z,98954.81
2023-01-13T19:45:20.481Z,98968.38
2023-01-13T19:47:48.293Z,98967.19
2023-01-13T19:50:16.535Z,98972.97
2023-01-13T19:52:44.605Z,98979.94
2023-01-13T19:55:13.946Z,98981.38
2023-01-13T19:57:41.934Z,98994.13
2023-01-13T20:00:12.251Z,99001.41
2023-01-13T20:02:47.918Z,98995.09
2023-01-13T20:05:21.523Z,99003.50
2023-01-13T20:07:50.061Z,99009.50
2023-01-13T20:10:21.334Z,99018.00
2023-01-13T20:12:49.320Z,99013.47
2023-01-13T20:15:17.362Z,99006.13
2023-01-13T20:17:45.534Z,99005.44
2023-01-13T20:20:14.989Z,99012.91
2023-01-13T20:22:42.900Z,99013.50
2023-01-13T20:25:13.208Z,99020.34
2023-01-13T20:27:45.931Z,99026.84
2023-01-13T20:30:15.012Z,99042.81
2023-01-13T20:32:43.870Z,99032.84
2023-01-13T20:35:12.480Z,99022.19
2023-01-13T20:37:41.959Z,99032.00
2023-01-13T20:40:12.124Z,99027.66
2023-01-13T20:42:44.853Z,99037.91
2023-01-13T20:45:17.465Z,99022.06
2023-01-13T20:47:46.260Z,99031.72
2023-01-13T20:50:17.932Z,99017.31
2023-01-13T20:52:46.552Z,99024.28
2023-01-13T20:55:15.321Z,99015.56
2023-01-13T20:57:43.224Z,99030.41
2023-01-13T21:00:12.128Z,99028.03
2023-01-13T21:02:42.012Z,99031.00
2023-01-13T21:05:10.194Z,99031.25
2023-01-13T21:07:38.070Z,99033.13
2023-01-13T21:10:06.622Z,99025.25
2023-01-13T21:12:51.895Z,99032.03
2023-01-13T21:15:22.783Z,99047.28
2023-01-13T21:18:10.439Z,99042.44
2023-01-13T21:20:39.637Z,99039.09
2023-01-13T21:23:08.277Z,99046.69
2023-01-13T21:25:39.613Z,99048.72
2023-01-13T21:28:10.432Z,99053.63
2023-01-13T21:30:39.215Z,99052.25
2023-01-13T21:33:08.878Z,99046.69
2023-01-13T21:35:38.993Z,99057.94
2023-01-13T21:38:06.908Z,99055.84
2023-01-13T21:40:34.802Z,99064.31
2023-01-13T21:43:24.360Z,99054.44
2023-01-13T21:46:09.655Z,99060.03
2023-01-13T21:48:38.935Z,99067.66
2023-01-13T21:51:06.983Z,99069.09
2023-01-13T21:53:34.788Z,99072.91
2023-01-13T21:56:02.696Z,99073.13
2023-01-13T21:58:30.505Z,99067.22
2023-01-13T22:01:02.264Z,99079.66
2023-01-13T22:03:30.171Z,99069.09
2023-01-13T22:05:59.429Z,99080.53
2023-01-13T22:08:30.334Z,99092.75
2023-01-13T22:10:58.583Z,99097.22
2023-01-13T22:13:44.664Z,99099.78
2023-01-13T22:16:12.587Z,99092.47
2023-01-13T22:18:40.461Z,99108.69
2023-01-13T22:21:10.916Z,99099.84
2023-01-13T22:23:38.772Z,99102.78
2023-01-13T22:26:08.388Z,99108.91
2023-01-13T22:28:40.817Z,99118.44
2023-01-13T22:31:09.291Z,99122.94
2023-01-13T22:33:37.197Z,99125.00
2023-01-13T22:36:05.670Z,99122.59
2023-01-13T22:38:34.927Z,99120.63
2023-01-13T22:41:07.274Z,99110.22
2023-01-13T22:43:36.107Z,99111.38
2023-01-13T22:46:06.852Z,99112.13
2023-01-13T22:48:35.073Z,99115.22
2023-01-13T22:51:06.425Z,99099.69
2023-01-13T22:53:36.490Z,99098.16
2023-01-13T22:56:05.129Z,99090.50
2023-01-13T22:58:32.972Z,99091.88
2023-01-13T23:01:10.378Z,99094.34
2023-01-13T23:03:38.375Z,99096.50
2023-01-13T23:06:06.340Z,99092.25
2023-01-13T23:08:37.807Z,99089.53
2023-01-13T23:11:08.118Z,99100.25
2023-01-13T23:13:37.921Z,99102.06
2023-01-13T23:16:07.402Z,99106.41
2023-01-13T23:18:35.532Z,99112.09
2023-01-13T23:21:04.966Z,99121.94
2023-01-13T23:23:33.250Z,99117.69
2023-01-13T23:26:02.563Z,99123.69
2023-01-13T23:28:31.249Z,99115.22
2023-01-13T23:30:59.091Z,99127.69
2023-01-13T23:33:27.443Z,99138.41
2023-01-13T23:35:58.160Z,99134.72
2023-01-13T23:38:26.146Z,99138.09
2023-01-13T23:40:56.213Z,99150.19
2023-01-13T23:43:26.806Z,99147.25
2023-01-13T23:46:02.975Z,99139.81
2023-01-13T23:48:30.842Z,99138.25
2023-01-13T23:50:59.120Z,99135.78
2023-01-13T23:53:33.220Z,99133.53
2023-01-13T23:56:01.557Z,99122.66
2023-01-13T23:58:34.826Z,99117.59
